sensor_id;sensor_type;location;lat;lon;timestamp;P1;durP1;ratioP1;P2;durP2;ratioP2
66987;SDS011;53908;51.464;-2.588;2022-08-25T00:00:39;8.82;;;3.20;;
66987;SDS011;53908;51.464;-2.588;2022-08-25T00:03:05;7.15;;;3.30;;
66987;SDS011;53908;51.464;-2.588;2022-08-25T00:05:32;7.93;;;3.58;;
66987;SDS011;53908;51.464;-2.588;2022-08-25T00:07:58;6.80;;;3.45;;
66987;SDS011;53908;51.464;-2.588;2022-08-25T00:10:24;7.20;;;3.75;;
66987;SDS011;53908;51.464;-2.588;2022-08-25T00:12:49;5.68;;;3.30;;
66987;SDS011;53908;51.464;-2.588;2022-08-25T00:15:15;7.00;;;3.10;;
66987;SDS011;53908;51.464;-2.588;2022-08-25T00:17:40;5.38;;;2.78;;
66987;SDS011;53908;51.464;-2.588;2022-08-25T00:20:06;5.18;;;3.03;;
66987;SDS011;53908;51.464;-2.588;2022-08-25T00:22:33;6.72;;;3.03;;
66987;SDS011;53908;51.464;-2.588;2022-08-25T00:24:59;5.35;;;2.53;;
66987;SDS011;53908;51.464;-2.588;2022-08-25T00:27:24;5.38;;;2.55;;
66987;SDS011;53908;51.464;-2.588;2022-08-25T00:29:50;4.28;;;2.40;;
66987;SDS011;53908;51.464;-2.588;2022-08-25T00:32:15;5.32;;;2.40;;
66987;SDS011;53908;51.464;-2.588;2022-08-25T00:34:42;4.60;;;2.60;;
66987;SDS011;53908;51.464;-2.588;2022-08-25T00:37:08;5.22;;;2.55;;
66987;SDS011;53908;51.464;-2.588;2022-08-25T00:39:34;4.85;;;2.40;;
66987;SDS011;53908;51.464;-2.588;2022-08-25T00:42:00;4.55;;;2.80;;
66987;SDS011;53908;51.464;-2.588;2022-08-25T00:44:29;4.28;;;2.58;;
66987;SDS011;53908;51.464;-2.588;2022-08-25T00:46:56;6.78;;;2.63;;
66987;SDS011;53908;51.464;-2.588;2022-08-25T00:49:29;4.63;;;2.42;;
66987;SDS011;53908;51.464;-2.588;2022-08-25T00:54:33;4.55;;;2.50;;
66987;SDS011;53908;51.464;-2.588;2022-08-25T00:57:09;6.65;;;3.40;;
66987;SDS011;53908;51.464;-2.588;2022-08-25T00:59:36;5.07;;;2.55;;
66987;SDS011;53908;51.464;-2.588;2022-08-25T01:02:03;6.45;;;3.10;;
66987;SDS011;53908;51.464;-2.588;2022-08-25T01:04:29;6.88;;;2.67;;
66987;SDS011;53908;51.464;-2.588;2022-08-25T01:06:55;3.58;;;2.60;;
66987;SDS011;53908;51.464;-2.588;2022-08-25T01:09:20;4.93;;;2.40;;
66987;SDS011;53908;51.464;-2.588;2022-08-25T01:11:46;10.63;;;2.63;;
66987;SDS011;53908;51.464;-2.588;2022-08-25T01:14:12;7.25;;;2.40;;
66987;SDS011;53908;51.464;-2.588;2022-08-25T01:16:40;5.95;;;2.65;;
66987;SDS011;53908;51.464;-2.588;2022-08-25T01:19:07;7.05;;;2.80;;
66987;SDS011;53908;51.464;-2.588;2022-08-25T01:21:42;5.22;;;2.80;;
66987;SDS011;53908;51.464;-2.588;2022-08-25T01:24:11;5.65;;;3.00;;
66987;SDS011;53908;51.464;-2.588;2022-08-25T01:26:40;6.43;;;3.22;;
66987;SDS011;53908;51.464;-2.588;2022-08-25T01:29:08;7.43;;;2.90;;
66987;SDS011;53908;51.464;-2.588;2022-08-25T01:31:48;11.57;;;3.45;;
66987;SDS011;53908;51.464;-2.588;2022-08-25T01:34:16;5.45;;;3.00;;
66987;SDS011;53908;51.464;-2.588;2022-08-25T01:36:42;11.27;;;3.13;;
66987;SDS011;53908;51.464;-2.588;2022-08-25T01:39:09;9.18;;;3.30;;
66987;SDS011;53908;51.464;-2.588;2022-08-25T01:41:40;6.80;;;2.78;;
66987;SDS011;53908;51.464;-2.588;2022-08-25T01:44:25;8.13;;;3.20;;
66987;SDS011;53908;51.464;-2.588;2022-08-25T01:46:51;3.88;;;2.40;;
66987;SDS011;53908;51.464;-2.588;2022-08-25T01:49:17;5.03;;;2.30;;
66987;SDS011;53908;51.464;-2.588;2022-08-25T01:51:43;2.47;;;2.05;;
66987;SDS011;53908;51.464;-2.588;2022-08-25T01:54:13;3.78;;;2.05;;
66987;SDS011;53908;51.464;-2.588;2022-08-25T01:56:39;3.40;;;2.00;;
66987;SDS011;53908;51.464;-2.588;2022-08-25T01:59:04;4.30;;;2.03;;
66987;SDS011;53908;51.464;-2.588;2022-08-25T02:01:29;4.85;;;1.67;;
66987;SDS011;53908;51.464;-2.588;2022-08-25T02:03:55;5.35;;;1.65;;
66987;SDS011;53908;51.464;-2.588;2022-08-25T02:06:31;5.15;;;1.67;;
66987;SDS011;53908;51.464;-2.588;2022-08-25T02:08:59;7.00;;;1.60;;
66987;SDS011;53908;51.464;-2.588;2022-08-25T02:11:28;5.32;;;1.65;;
66987;SDS011;53908;51.464;-2.588;2022-08-25T02:13:54;3.35;;;1.60;;
66987;SDS011;53908;51.464;-2.588;2022-08-25T02:16:21;1.75;;;1.30;;
66987;SDS011;53908;51.464;-2.588;2022-08-25T02:18:51;4.20;;;1.42;;
66987;SDS011;53908;51.464;-2.588;2022-08-25T02:21:17;1.77;;;1.30;;
66987;SDS011;53908;51.464;-2.588;2022-08-25T02:23:42;3.25;;;1.35;;
66987;SDS011;53908;51.464;-2.588;2022-08-25T02:26:08;2.33;;;1.20;;
66987;SDS011;53908;51.464;-2.588;2022-08-25T02:28:34;3.20;;;1.50;;
66987;SDS011;53908;51.464;-2.588;2022-08-25T02:31:01;5.50;;;1.50;;
66987;SDS011;53908;51.464;-2.588;2022-08-25T02:33:28;2.45;;;1.25;;
66987;SDS011;53908;51.464;-2.588;2022-08-25T02:35:55;1.30;;;1.20;;
66987;SDS011;53908;51.464;-2.588;2022-08-25T02:38:22;2.25;;;1.30;;
66987;SDS011;53908;51.464;-2.588;2022-08-25T02:40:47;3.10;;;1.30;;
66987;SDS011;53908;51.464;-2.588;2022-08-25T02:43:16;2.10;;;1.10;;
66987;SDS011;53908;51.464;-2.588;2022-08-25T02:45:41;1.80;;;1.10;;
66987;SDS011;53908;51.464;-2.588;2022-08-25T02:48:07;1.80;;;1.13;;
66987;SDS011;53908;51.464;-2.588;2022-08-25T02:50:32;5.13;;;1.55;;
66987;SDS011;53908;51.464;-2.588;2022-08-25T02:52:58;2.30;;;1.40;;
66987;SDS011;53908;51.464;-2.588;2022-08-25T02:55:23;2.42;;;1.55;;
66987;SDS011;53908;51.464;-2.588;2022-08-25T02:57:48;1.60;;;1.50;;
66987;SDS011;53908;51.464;-2.588;2022-08-25T03:00:14;1.52;;;1.35;;
66987;SDS011;53908;51.464;-2.588;2022-08-25T03:02:41;1.75;;;1.38;;
66987;SDS011;53908;51.464;-2.588;2022-08-25T03:05:07;2.13;;;1.55;;
66987;SDS011;53908;51.464;-2.588;2022-08-25T03:07:34;4.20;;;1.55;;
66987;SDS011;53908;51.464;-2.588;2022-08-25T03:10:03;3.97;;;1.75;;
66987;SDS011;53908;51.464;-2.588;2022-08-25T03:12:32;2.25;;;1.50;;
66987;SDS011;53908;51.464;-2.588;2022-08-25T03:14:57;2.30;;;1.40;;
66987;SDS011;53908;51.464;-2.588;2022-08-25T03:17:23;1.70;;;1.40;;
66987;SDS011;53908;51.464;-2.588;2022-08-25T03:19:48;2.75;;;1.40;;
66987;SDS011;53908;51.464;-2.588;2022-08-25T03:22:14;5.07;;;1.48;;
66987;SDS011;53908;51.464;-2.588;2022-08-25T03:24:39;1.85;;;1.20;;
66987;SDS011;53908;51.464;-2.588;2022-08-25T03:27:04;1.50;;;1.40;;
66987;SDS011;53908;51.464;-2.588;2022-08-25T03:29:31;2.15;;;1.35;;
66987;SDS011;53908;51.464;-2.588;2022-08-25T03:31:57;1.38;;;1.30;;
66987;SDS011;53908;51.464;-2.588;2022-08-25T03:34:23;2.63;;;1.33;;
66987;SDS011;53908;51.464;-2.588;2022-08-25T03:36:52;2.58;;;1.40;;
66987;SDS011;53908;51.464;-2.588;2022-08-25T03:39:18;2.05;;;1.30;;
66987;SDS011;53908;51.464;-2.588;2022-08-25T03:41:45;2.88;;;1.50;;
66987;SDS011;53908;51.464;-2.588;2022-08-25T03:44:14;1.30;;;1.20;;
66987;SDS011;53908;51.464;-2.588;2022-08-25T03:46:41;1.50;;;1.30;;
66987;SDS011;53908;51.464;-2.588;2022-08-25T03:49:10;3.33;;;1.42;;
66987;SDS011;53908;51.464;-2.588;2022-08-25T03:51:41;2.30;;;1.50;;
66987;SDS011;53908;51.464;-2.588;2022-08-25T03:54:11;3.40;;;1.45;;
66987;SDS011;53908;51.464;-2.588;2022-08-25T03:56:39;3.28;;;1.92;;
66987;SDS011;53908;51.464;-2.588;2022-08-25T03:59:05;2.10;;;1.65;;
66987;SDS011;53908;51.464;-2.588;2022-08-25T04:01:33;5.55;;;2.10;;
66987;SDS011;53908;51.464;-2.588;2022-08-25T04:04:00;2.22;;;2.03;;
66987;SDS011;53908;51.464;-2.588;2022-08-25T04:06:26;1.88;;;1.77;;
66987;SDS011;53908;51.464;-2.588;2022-08-25T04:08:51;1.75;;;1.65;;
66987;SDS011;53908;51.464;-2.588;2022-08-25T04:11:19;1.80;;;1.50;;
66987;SDS011;53908;51.464;-2.588;2022-08-25T04:13:46;1.67;;;1.58;;
66987;SDS011;53908;51.464;-2.588;2022-08-25T04:16:15;1.58;;;1.48;;
66987;SDS011;53908;51.464;-2.588;2022-08-25T04:18:42;2.10;;;1.25;;
66987;SDS011;53908;51.464;-2.588;2022-08-25T04:21:09;3.42;;;1.40;;
66987;SDS011;53908;51.464;-2.588;2022-08-25T04:23:37;2.05;;;1.08;;
66987;SDS011;53908;51.464;-2.588;2022-08-25T04:26:38;2.58;;;1.02;;
66987;SDS011;53908;51.464;-2.588;2022-08-25T04:28:58;1.10;;;1.10;;
66987;SDS011;53908;51.464;-2.588;2022-08-25T04:31:25;1.23;;;1.20;;
66987;SDS011;53908;51.464;-2.588;2022-08-25T04:33:51;2.45;;;1.17;;
66987;SDS011;53908;51.464;-2.588;2022-08-25T04:36:17;0.95;;;0.95;;
66987;SDS011;53908;51.464;-2.588;2022-08-25T04:38:44;1.88;;;0.90;;
66987;SDS011;53908;51.464;-2.588;2022-08-25T04:41:10;0.73;;;0.73;;
66987;SDS011;53908;51.464;-2.588;2022-08-25T04:43:37;2.50;;;0.80;;
66987;SDS011;53908;51.464;-2.588;2022-08-25T04:46:05;0.65;;;0.50;;
66987;SDS011;53908;51.464;-2.588;2022-08-25T04:48:35;0.60;;;0.60;;
66987;SDS011;53908;51.464;-2.588;2022-08-25T04:51:07;0.70;;;0.70;;
66987;SDS011;53908;51.464;-2.588;2022-08-25T04:53:36;0.75;;;0.73;;
66987;SDS011;53908;51.464;-2.588;2022-08-25T04:56:04;0.95;;;0.70;;
66987;SDS011;53908;51.464;-2.588;2022-08-25T04:58:31;1.60;;;0.55;;
66987;SDS011;53908;51.464;-2.588;2022-08-25T05:01:00;0.82;;;0.77;;
66987;SDS011;53908;51.464;-2.588;2022-08-25T05:03:27;0.70;;;0.70;;
66987;SDS011;53908;51.464;-2.588;2022-08-25T05:05:53;0.85;;;0.70;;
66987;SDS011;53908;51.464;-2.588;2022-08-25T05:08:18;1.13;;;0.80;;
66987;SDS011;53908;51.464;-2.588;2022-08-25T05:10:43;1.58;;;0.77;;
66987;SDS011;53908;51.464;-2.588;2022-08-25T05:13:09;1.05;;;0.70;;
66987;SDS011;53908;51.464;-2.588;2022-08-25T05:15:34;2.97;;;0.75;;
66987;SDS011;53908;51.464;-2.588;2022-08-25T05:18:15;0.93;;;0.80;;
66987;SDS011;53908;51.464;-2.588;2022-08-25T05:20:42;1.75;;;0.73;;
66987;SDS011;53908;51.464;-2.588;2022-08-25T05:23:07;0.80;;;0.80;;
66987;SDS011;53908;51.464;-2.588;2022-08-25T05:25:33;0.98;;;0.90;;
66987;SDS011;53908;51.464;-2.588;2022-08-25T05:27:58;0.95;;;0.95;;
66987;SDS011;53908;51.464;-2.588;2022-08-25T05:30:24;1.30;;;1.20;;
66987;SDS011;53908;51.464;-2.588;2022-08-25T05:32:49;1.85;;;1.73;;
66987;SDS011;53908;51.464;-2.588;2022-08-25T05:35:14;2.58;;;1.92;;
66987;SDS011;53908;51.464;-2.588;2022-08-25T05:37:40;2.30;;;2.10;;
66987;SDS011;53908;51.464;-2.588;2022-08-25T05:40:07;5.78;;;2.30;;
66987;SDS011;53908;51.464;-2.588;2022-08-25T05:42:33;3.13;;;2.40;;
66987;SDS011;53908;51.464;-2.588;2022-08-25T05:44:59;2.33;;;2.03;;
66987;SDS011;53908;51.464;-2.588;2022-08-25T05:47:24;2.38;;;2.28;;
66987;SDS011;53908;51.464;-2.588;2022-08-25T05:49:50;2.33;;;2.13;;
66987;SDS011;53908;51.464;-2.588;2022-08-25T05:52:15;2.03;;;1.80;;
66987;SDS011;53908;51.464;-2.588;2022-08-25T05:54:41;3.72;;;1.73;;
66987;SDS011;53908;51.464;-2.588;2022-08-25T05:57:06;2.08;;;1.40;;
66987;SDS011;53908;51.464;-2.588;2022-08-25T05:59:33;1.65;;;1.38;;
66987;SDS011;53908;51.464;-2.588;2022-08-25T06:01:59;2.55;;;1.30;;
66987;SDS011;53908;51.464;-2.588;2022-08-25T06:04:43;3.50;;;1.15;;
66987;SDS011;53908;51.464;-2.588;2022-08-25T06:07:09;1.33;;;0.98;;
66987;SDS011;53908;51.464;-2.588;2022-08-25T06:09:36;1.60;;;1.13;;
66987;SDS011;53908;51.464;-2.588;2022-08-25T06:12:03;1.58;;;1.10;;
66987;SDS011;53908;51.464;-2.588;2022-08-25T06:14:29;2.78;;;1.20;;
66987;SDS011;53908;51.464;-2.588;2022-08-25T06:16:54;1.17;;;1.10;;
66987;SDS011;53908;51.464;-2.588;2022-08-25T06:19:20;2.70;;;1.02;;
66987;SDS011;53908;51.464;-2.588;2022-08-25T06:21:47;1.17;;;1.02;;
66987;SDS011;53908;51.464;-2.588;2022-08-25T06:24:13;2.15;;;0.93;;
66987;SDS011;53908;51.464;-2.588;2022-08-25T06:26:39;1.38;;;1.27;;
66987;SDS011;53908;51.464;-2.588;2022-08-25T06:29:08;1.60;;;1.10;;
66987;SDS011;53908;51.464;-2.588;2022-08-25T06:31:33;1.75;;;1.08;;
66987;SDS011;53908;51.464;-2.588;2022-08-25T06:33:58;1.95;;;1.25;;
66987;SDS011;53908;51.464;-2.588;2022-08-25T06:36:24;3.13;;;1.23;;
66987;SDS011;53908;51.464;-2.588;2022-08-25T06:38:50;2.58;;;1.30;;
66987;SDS011;53908;51.464;-2.588;2022-08-25T06:41:16;2.45;;;1.30;;
66987;SDS011;53908;51.464;-2.588;2022-08-25T06:43:41;1.73;;;1.15;;
66987;SDS011;53908;51.464;-2.588;2022-08-25T06:46:11;2.75;;;1.35;;
66987;SDS011;53908;51.464;-2.588;2022-08-25T06:48:38;2.00;;;1.48;;
66987;SDS011;53908;51.464;-2.588;2022-08-25T06:51:04;1.85;;;1.30;;
66987;SDS011;53908;51.464;-2.588;2022-08-25T06:53:31;2.55;;;1.50;;
66987;SDS011;53908;51.464;-2.588;2022-08-25T06:55:57;6.47;;;1.67;;
66987;SDS011;53908;51.464;-2.588;2022-08-25T06:58:23;2.85;;;1.80;;
66987;SDS011;53908;51.464;-2.588;2022-08-25T07:00:48;2.75;;;1.83;;
66987;SDS011;53908;51.464;-2.588;2022-08-25T07:03:14;4.18;;;1.95;;
66987;SDS011;53908;51.464;-2.588;2022-08-25T07:05:39;2.30;;;2.10;;
66987;SDS011;53908;51.464;-2.588;2022-08-25T07:08:05;4.18;;;2.13;;
66987;SDS011;53908;51.464;-2.588;2022-08-25T07:10:33;2.05;;;1.50;;
66987;SDS011;53908;51.464;-2.588;2022-08-25T07:12:59;2.88;;;1.67;;
66987;SDS011;53908;51.464;-2.588;2022-08-25T07:15:24;3.00;;;1.73;;
66987;SDS011;53908;51.464;-2.588;2022-08-25T07:17:50;1.73;;;1.63;;
66987;SDS011;53908;51.464;-2.588;2022-08-25T07:20:19;3.05;;;1.63;;
66987;SDS011;53908;51.464;-2.588;2022-08-25T07:22:44;3.92;;;1.65;;
66987;SDS011;53908;51.464;-2.588;2022-08-25T07:25:10;2.70;;;1.75;;
66987;SDS011;53908;51.464;-2.588;2022-08-25T07:27:36;7.85;;;1.60;;
66987;SDS011;53908;51.464;-2.588;2022-08-25T07:30:02;2.92;;;1.70;;
66987;SDS011;53908;51.464;-2.588;2022-08-25T07:32:29;1.50;;;1.38;;
66987;SDS011;53908;51.464;-2.588;2022-08-25T07:34:55;2.78;;;1.45;;
66987;SDS011;53908;51.464;-2.588;2022-08-25T07:37:39;3.47;;;2.70;;
66987;SDS011;53908;51.464;-2.588;2022-08-25T07:40:04;1.98;;;1.60;;
66987;SDS011;53908;51.464;-2.588;2022-08-25T07:42:31;2.50;;;1.63;;
66987;SDS011;53908;51.464;-2.588;2022-08-25T07:44:56;2.13;;;1.65;;
66987;SDS011;53908;51.464;-2.588;2022-08-25T07:47:21;3.03;;;1.80;;
66987;SDS011;53908;51.464;-2.588;2022-08-25T07:49:47;3.78;;;1.75;;
66987;SDS011;53908;51.464;-2.588;2022-08-25T07:52:12;7.18;;;1.50;;
66987;SDS011;53908;51.464;-2.588;2022-08-25T07:54:38;4.13;;;1.60;;
66987;SDS011;53908;51.464;-2.588;2022-08-25T07:57:05;6.15;;;1.65;;
66987;SDS011;53908;51.464;-2.588;2022-08-25T07:59:32;2.45;;;1.48;;
66987;SDS011;53908;51.464;-2.588;2022-08-25T08:01:58;3.47;;;1.50;;
66987;SDS011;53908;51.464;-2.588;2022-08-25T08:04:23;1.63;;;1.40;;
66987;SDS011;53908;51.464;-2.588;2022-08-25T08:06:49;3.03;;;1.60;;
66987;SDS011;53908;51.464;-2.588;2022-08-25T08:09:14;6.30;;;1.55;;
66987;SDS011;53908;51.464;-2.588;2022-08-25T08:11:40;2.97;;;1.63;;
66987;SDS011;53908;51.464;-2.588;2022-08-25T08:14:08;4.38;;;1.48;;
66987;SDS011;53908;51.464;-2.588;2022-08-25T08:16:35;6.03;;;1.70;;
66987;SDS011;53908;51.464;-2.588;2022-08-25T08:19:01;3.25;;;1.50;;
66987;SDS011;53908;51.464;-2.588;2022-08-25T08:21:29;3.22;;;1.52;;
66987;SDS011;53908;51.464;-2.588;2022-08-25T08:23:56;1.52;;;1.35;;
66987;SDS011;53908;51.464;-2.588;2022-08-25T08:26:23;4.22;;;1.90;;
66987;SDS011;53908;51.464;-2.588;2022-08-25T08:28:49;2.80;;;1.58;;
66987;SDS011;53908;51.464;-2.588;2022-08-25T08:31:16;7.68;;;1.80;;
66987;SDS011;53908;51.464;-2.588;2022-08-25T08:33:45;2.80;;;1.58;;
66987;SDS011;53908;51.464;-2.588;2022-08-25T08:36:11;3.45;;;1.80;;
66987;SDS011;53908;51.464;-2.588;2022-08-25T08:38:37;3.47;;;1.88;;
66987;SDS011;53908;51.464;-2.588;2022-08-25T08:55:08;2.85;;;1.50;;
66987;SDS011;53908;51.464;-2.588;2022-08-25T08:57:48;1.90;;;1.55;;
66987;SDS011;53908;51.464;-2.588;2022-08-25T09:00:16;1.30;;;1.20;;
66987;SDS011;53908;51.464;-2.588;2022-08-25T09:02:45;7.50;;;1.30;;
66987;SDS011;53908;51.464;-2.588;2022-08-25T09:05:16;2.58;;;1.30;;
66987;SDS011;53908;51.464;-2.588;2022-08-25T09:07:45;5.85;;;1.60;;
66987;SDS011;53908;51.464;-2.588;2022-08-25T09:10:16;4.05;;;1.40;;
66987;SDS011;53908;51.464;-2.588;2022-08-25T09:13:06;3.28;;;1.20;;
66987;SDS011;53908;51.464;-2.588;2022-08-25T09:15:39;3.55;;;1.90;;
66987;SDS011;53908;51.464;-2.588;2022-08-25T09:18:50;4.50;;;1.63;;
66987;SDS011;53908;51.464;-2.588;2022-08-25T09:21:42;2.90;;;1.77;;
66987;SDS011;53908;51.464;-2.588;2022-08-25T09:29:39;5.15;;;2.58;;
66987;SDS011;53908;51.464;-2.588;2022-08-25T09:32:11;12.07;;;2.90;;
66987;SDS011;53908;51.464;-2.588;2022-08-25T09:34:36;2.80;;;1.88;;
66987;SDS011;53908;51.464;-2.588;2022-08-25T09:37:02;6.45;;;2.85;;
66987;SDS011;53908;51.464;-2.588;2022-08-25T09:39:27;5.30;;;3.00;;
66987;SDS011;53908;51.464;-2.588;2022-08-25T09:41:54;3.60;;;3.10;;
66987;SDS011;53908;51.464;-2.588;2022-08-25T09:47:03;6.05;;;3.13;;
66987;SDS011;53908;51.464;-2.588;2022-08-25T09:49:38;6.65;;;3.42;;
66987;SDS011;53908;51.464;-2.588;2022-08-25T09:54:53;2.60;;;2.40;;
66987;SDS011;53908;51.464;-2.588;2022-08-25T09:57:26;4.38;;;2.60;;
66987;SDS011;53908;51.464;-2.588;2022-08-25T09:59:56;2.22;;;2.03;;
66987;SDS011;53908;51.464;-2.588;2022-08-25T10:02:36;2.30;;;1.90;;
66987;SDS011;53908;51.464;-2.588;2022-08-25T10:08:03;4.10;;;1.70;;
66987;SDS011;53908;51.464;-2.588;2022-08-25T10:10:38;4.20;;;1.95;;
66987;SDS011;53908;51.464;-2.588;2022-08-25T10:13:16;2.17;;;1.58;;
66987;SDS011;53908;51.464;-2.588;2022-08-25T10:15:43;1.92;;;1.70;;
66987;SDS011;53908;51.464;-2.588;2022-08-25T10:23:47;2.33;;;2.13;;
66987;SDS011;53908;51.464;-2.588;2022-08-25T10:37:11;2.10;;;1.90;;
66987;SDS011;53908;51.464;-2.588;2022-08-25T10:39:51;3.20;;;1.88;;
66987;SDS011;53908;51.464;-2.588;2022-08-25T10:42:27;1.70;;;1.60;;
66987;SDS011;53908;51.464;-2.588;2022-08-25T10:45:19;1.98;;;1.70;;
66987;SDS011;53908;51.464;-2.588;2022-08-25T10:50:57;2.53;;;1.90;;
66987;SDS011;53908;51.464;-2.588;2022-08-25T10:56:11;1.67;;;1.58;;
66987;SDS011;53908;51.464;-2.588;2022-08-25T11:09:11;3.17;;;2.08;;
66987;SDS011;53908;51.464;-2.588;2022-08-25T11:11:54;2.58;;;1.95;;
66987;SDS011;53908;51.464;-2.588;2022-08-25T11:14:25;2.90;;;1.98;;
66987;SDS011;53908;51.464;-2.588;2022-08-25T11:19:39;2.28;;;1.70;;
66987;SDS011;53908;51.464;-2.588;2022-08-25T11:22:12;2.20;;;2.00;;
66987;SDS011;53908;51.464;-2.588;2022-08-25T11:27:16;2.10;;;1.90;;
66987;SDS011;53908;51.464;-2.588;2022-08-25T11:29:48;2.08;;;1.80;;
66987;SDS011;53908;51.464;-2.588;2022-08-25T11:32:34;6.10;;;1.73;;
66987;SDS011;53908;51.464;-2.588;2022-08-25T11:35:10;2.40;;;1.80;;
66987;SDS011;53908;51.464;-2.588;2022-08-25T11:37:42;3.22;;;2.00;;
66987;SDS011;53908;51.464;-2.588;2022-08-25T11:50:54;3.67;;;2.13;;
66987;SDS011;53908;51.464;-2.588;2022-08-25T11:55:50;4.68;;;2.13;;
66987;SDS011;53908;51.464;-2.588;2022-08-25T12:00:52;5.45;;;2.42;;
66987;SDS011;53908;51.464;-2.588;2022-08-25T12:16:40;2.70;;;2.00;;
66987;SDS011;53908;51.464;-2.588;2022-08-25T12:30:00;2.72;;;2.10;;
66987;SDS011;53908;51.464;-2.588;2022-08-25T12:37:57;2.97;;;2.30;;
66987;SDS011;53908;51.464;-2.588;2022-08-25T12:40:30;4.20;;;2.38;;
66987;SDS011;53908;51.464;-2.588;2022-08-25T12:42:59;4.28;;;2.45;;
66987;SDS011;53908;51.464;-2.588;2022-08-25T12:45:32;5.47;;;2.40;;
66987;SDS011;53908;51.464;-2.588;2022-08-25T12:51:03;2.75;;;2.05;;
66987;SDS011;53908;51.464;-2.588;2022-08-25T12:53:38;3.55;;;2.10;;
66987;SDS011;53908;51.464;-2.588;2022-08-25T13:04:10;5.80;;;2.35;;
66987;SDS011;53908;51.464;-2.588;2022-08-25T13:12:28;2.50;;;2.30;;
66987;SDS011;53908;51.464;-2.588;2022-08-25T13:17:32;7.40;;;2.80;;
66987;SDS011;53908;51.464;-2.588;2022-08-25T13:22:51;5.83;;;2.90;;
66987;SDS011;53908;51.464;-2.588;2022-08-25T13:25:19;4.63;;;2.75;;
66987;SDS011;53908;51.464;-2.588;2022-08-25T13:27:47;4.13;;;2.00;;
66987;SDS011;53908;51.464;-2.588;2022-08-25T13:30:32;4.65;;;2.20;;
66987;SDS011;53908;51.464;-2.588;2022-08-25T13:32:59;2.22;;;1.88;;
66987;SDS011;53908;51.464;-2.588;2022-08-25T13:35:44;2.60;;;2.40;;
66987;SDS011;53908;51.464;-2.588;2022-08-25T13:40:38;3.60;;;2.00;;
66987;SDS011;53908;51.464;-2.588;2022-08-25T13:43:08;4.90;;;2.00;;
66987;SDS011;53908;51.464;-2.588;2022-08-25T13:45:44;5.57;;;2.77;;
66987;SDS011;53908;51.464;-2.588;2022-08-25T13:48:12;2.78;;;2.42;;
66987;SDS011;53908;51.464;-2.588;2022-08-25T13:50:39;4.22;;;2.10;;
66987;SDS011;53908;51.464;-2.588;2022-08-25T13:53:12;3.97;;;2.20;;
66987;SDS011;53908;51.464;-2.588;2022-08-25T13:58:11;2.38;;;2.17;;
66987;SDS011;53908;51.464;-2.588;2022-08-25T14:00:46;2.20;;;2.00;;
66987;SDS011;53908;51.464;-2.588;2022-08-25T14:06:04;3.50;;;2.28;;
66987;SDS011;53908;51.464;-2.588;2022-08-25T14:08:31;3.65;;;1.95;;
66987;SDS011;53908;51.464;-2.588;2022-08-25T14:11:06;2.22;;;1.70;;
66987;SDS011;53908;51.464;-2.588;2022-08-25T14:13:40;1.80;;;1.70;;
66987;SDS011;53908;51.464;-2.588;2022-08-25T14:18:33;6.45;;;4.00;;
66987;SDS011;53908;51.464;-2.588;2022-08-25T14:20:59;5.07;;;2.00;;
66987;SDS011;53908;51.464;-2.588;2022-08-25T14:23:27;6.03;;;1.80;;
66987;SDS011;53908;51.464;-2.588;2022-08-25T14:25:54;2.92;;;2.03;;
66987;SDS011;53908;51.464;-2.588;2022-08-25T14:28:22;3.90;;;2.00;;
66987;SDS011;53908;51.464;-2.588;2022-08-25T14:30:52;4.32;;;1.90;;
66987;SDS011;53908;51.464;-2.588;2022-08-25T14:33:20;3.78;;;1.80;;
66987;SDS011;53908;51.464;-2.588;2022-08-25T14:35:48;2.53;;;1.70;;
66987;SDS011;53908;51.464;-2.588;2022-08-25T14:38:15;1.92;;;1.73;;
66987;SDS011;53908;51.464;-2.588;2022-08-25T14:40:41;4.07;;;2.10;;
66987;SDS011;53908;51.464;-2.588;2022-08-25T14:43:07;4.32;;;2.03;;
66987;SDS011;53908;51.464;-2.588;2022-08-25T14:45:34;3.08;;;1.90;;
66987;SDS011;53908;51.464;-2.588;2022-08-25T14:48:03;3.08;;;1.90;;
66987;SDS011;53908;51.464;-2.588;2022-08-25T14:50:30;3.53;;;1.70;;
66987;SDS011;53908;51.464;-2.588;2022-08-25T14:52:55;3.25;;;1.60;;
66987;SDS011;53908;51.464;-2.588;2022-08-25T14:55:21;3.75;;;1.70;;
66987;SDS011;53908;51.464;-2.588;2022-08-25T14:57:46;2.20;;;1.65;;
66987;SDS011;53908;51.464;-2.588;2022-08-25T15:00:11;2.95;;;1.60;;
66987;SDS011;53908;51.464;-2.588;2022-08-25T15:02:38;2.33;;;1.65;;
66987;SDS011;53908;51.464;-2.588;2022-08-25T15:05:05;2.97;;;1.80;;
66987;SDS011;53908;51.464;-2.588;2022-08-25T15:07:34;1.77;;;1.48;;
66987;SDS011;53908;51.464;-2.588;2022-08-25T15:10:18;6.03;;;1.67;;
66987;SDS011;53908;51.464;-2.588;2022-08-25T15:12:44;3.17;;;2.00;;
66987;SDS011;53908;51.464;-2.588;2022-08-25T15:15:09;2.95;;;1.98;;
66987;SDS011;53908;51.464;-2.588;2022-08-25T15:17:35;5.15;;;1.70;;
66987;SDS011;53908;51.464;-2.588;2022-08-25T15:20:02;3.20;;;2.17;;
66987;SDS011;53908;51.464;-2.588;2022-08-25T15:22:28;3.08;;;1.70;;
66987;SDS011;53908;51.464;-2.588;2022-08-25T15:24:53;2.42;;;1.77;;
66987;SDS011;53908;51.464;-2.588;2022-08-25T15:27:19;2.55;;;1.77;;
66987;SDS011;53908;51.464;-2.588;2022-08-25T15:29:45;3.47;;;1.50;;
66987;SDS011;53908;51.464;-2.588;2022-08-25T15:32:10;1.90;;;1.70;;
66987;SDS011;53908;51.464;-2.588;2022-08-25T15:34:36;2.30;;;1.67;;
66987;SDS011;53908;51.464;-2.588;2022-08-25T15:37:10;2.15;;;1.40;;
66987;SDS011;53908;51.464;-2.588;2022-08-25T15:39:37;1.77;;;1.50;;
66987;SDS011;53908;51.464;-2.588;2022-08-25T15:42:04;5.35;;;1.48;;
66987;SDS011;53908;51.464;-2.588;2022-08-25T15:44:30;3.45;;;1.38;;
66987;SDS011;53908;51.464;-2.588;2022-08-25T15:46:56;3.17;;;2.05;;
66987;SDS011;53908;51.464;-2.588;2022-08-25T15:49:22;2.08;;;1.33;;
66987;SDS011;53908;51.464;-2.588;2022-08-25T15:51:48;3.13;;;1.50;;
66987;SDS011;53908;51.464;-2.588;2022-08-25T15:54:14;2.13;;;1.30;;
66987;SDS011;53908;51.464;-2.588;2022-08-25T15:56:39;2.28;;;1.20;;
66987;SDS011;53908;51.464;-2.588;2022-08-25T15:59:05;2.03;;;1.17;;
66987;SDS011;53908;51.464;-2.588;2022-08-25T16:01:30;1.55;;;1.40;;
66987;SDS011;53908;51.464;-2.588;2022-08-25T16:03:56;3.25;;;1.40;;
66987;SDS011;53908;51.464;-2.588;2022-08-25T16:06:23;1.77;;;1.20;;
66987;SDS011;53908;51.464;-2.588;2022-08-25T16:08:49;2.35;;;1.33;;
66987;SDS011;53908;51.464;-2.588;2022-08-25T16:11:19;3.47;;;1.30;;
66987;SDS011;53908;51.464;-2.588;2022-08-25T16:13:46;2.30;;;1.50;;
66987;SDS011;53908;51.464;-2.588;2022-08-25T16:16:12;5.60;;;1.25;;
66987;SDS011;53908;51.464;-2.588;2022-08-25T16:18:39;4.53;;;1.20;;
66987;SDS011;53908;51.464;-2.588;2022-08-25T16:21:09;3.67;;;1.30;;
66987;SDS011;53908;51.464;-2.588;2022-08-25T16:23:36;5.40;;;1.40;;
66987;SDS011;53908;51.464;-2.588;2022-08-25T16:26:03;7.30;;;1.30;;
66987;SDS011;53908;51.464;-2.588;2022-08-25T16:28:35;3.35;;;1.30;;
66987;SDS011;53908;51.464;-2.588;2022-08-25T16:31:02;6.38;;;2.00;;
66987;SDS011;53908;51.464;-2.588;2022-08-25T16:33:27;5.40;;;1.40;;
66987;SDS011;53908;51.464;-2.588;2022-08-25T16:36:02;4.72;;;1.42;;
66987;SDS011;53908;51.464;-2.588;2022-08-25T16:38:29;7.60;;;1.65;;
66987;SDS011;53908;51.464;-2.588;2022-08-25T16:40:54;7.05;;;1.70;;
66987;SDS011;53908;51.464;-2.588;2022-08-25T16:43:19;9.90;;;2.35;;
66987;SDS011;53908;51.464;-2.588;2022-08-25T16:45:45;6.60;;;1.80;;
66987;SDS011;53908;51.464;-2.588;2022-08-25T16:48:10;10.13;;;1.92;;
66987;SDS011;53908;51.464;-2.588;2022-08-25T16:50:37;5.70;;;1.60;;
66987;SDS011;53908;51.464;-2.588;2022-08-25T16:53:03;8.63;;;1.88;;
66987;SDS011;53908;51.464;-2.588;2022-08-25T16:55:47;7.45;;;1.73;;
66987;SDS011;53908;51.464;-2.588;2022-08-25T16:58:13;10.23;;;2.13;;
66987;SDS011;53908;51.464;-2.588;2022-08-25T17:00:38;7.63;;;1.95;;
66987;SDS011;53908;51.464;-2.588;2022-08-25T17:03:03;6.45;;;1.60;;
66987;SDS011;53908;51.464;-2.588;2022-08-25T17:05:31;11.18;;;2.03;;